createdAt,value
2019-02-25T00:01:13.689Z,77.90
2019-02-25T00:03:44.021Z,78.00
2019-02-25T00:06:14.370Z,78.30
2019-02-25T00:08:44.777Z,78.60
2019-02-25T00:11:15.121Z,78.80
2019-02-25T00:13:45.460Z,79.00
2019-02-25T00:16:15.795Z,79.00
2019-02-25T00:18:46.216Z,78.70
2019-02-25T00:21:16.566Z,78.90
2019-02-25T00:23:46.913Z,78.70
2019-02-25T00:26:17.254Z,78.50
2019-02-25T00:28:59.960Z,80.00
2019-02-25T00:31:49.639Z,79.20
2019-02-25T00:34:19.966Z,78.90
2019-02-25T00:36:51.280Z,78.80
2019-02-25T00:39:21.618Z,78.70
2019-02-25T00:41:51.965Z,78.80
2019-02-25T00:44:22.293Z,79.00
2019-02-25T00:46:52.639Z,79.10
2019-02-25T00:49:22.973Z,79.00
2019-02-25T00:51:53.330Z,78.90
2019-02-25T00:54:23.671Z,79.30
2019-02-25T00:56:54.015Z,79.50
2019-02-25T00:59:24.360Z,79.50
2019-02-25T01:01:54.683Z,79.60
2019-02-25T01:04:25.020Z,79.80
2019-02-25T01:06:55.418Z,79.60
2019-02-25T01:09:25.827Z,79.70
2019-02-25T01:11:56.170Z,79.20
2019-02-25T01:14:26.502Z,79.20
2019-02-25T01:16:56.877Z,79.40
2019-02-25T01:19:27.215Z,79.80
2019-02-25T01:21:57.560Z,80.00
2019-02-25T01:24:27.898Z,79.90
2019-02-25T01:26:58.244Z,79.50
2019-02-25T01:29:28.589Z,79.90
2019-02-25T01:31:58.921Z,80.00
2019-02-25T01:34:29.274Z,79.90
2019-02-25T01:36:59.632Z,79.80
2019-02-25T01:39:29.980Z,80.20
2019-02-25T01:42:00.315Z,80.40
2019-02-25T01:44:30.655Z,80.30
2019-02-25T01:47:00.994Z,80.00
2019-02-25T01:49:31.340Z,80.10
2019-02-25T01:52:01.690Z,80.10
2019-02-25T01:54:32.044Z,80.30
2019-02-25T01:57:02.376Z,80.50
2019-02-25T01:59:32.724Z,80.30
2019-02-25T02:02:03.075Z,80.20
2019-02-25T02:04:33.415Z,80.00
2019-02-25T02:07:03.751Z,80.00
2019-02-25T02:09:34.102Z,80.00
2019-02-25T02:12:04.439Z,80.10
2019-02-25T02:14:46.547Z,80.00
2019-02-25T02:17:16.884Z,80.00
2019-02-25T02:19:47.230Z,79.90
2019-02-25T02:22:17.579Z,79.80
2019-02-25T02:24:47.920Z,79.70
2019-02-25T02:27:18.261Z,79.70
2019-02-25T02:29:48.612Z,79.50
2019-02-25T02:32:18.950Z,79.70
2019-02-25T02:34:49.306Z,79.90
2019-02-25T02:37:19.637Z,80.20
2019-02-25T02:39:50.036Z,80.40
2019-02-25T02:42:21.879Z,81.00
2019-02-25T02:44:54.935Z,80.10
2019-02-25T02:47:35.671Z,80.10
2019-02-25T02:50:10.635Z,80.10
2019-02-25T02:52:40.968Z,80.00
2019-02-25T02:55:11.369Z,80.50
2019-02-25T02:57:41.736Z,80.30
2019-02-25T03:00:18.025Z,79.60
2019-02-25T03:02:48.361Z,79.40
2019-02-25T03:05:18.988Z,79.50
2019-02-25T03:07:49.318Z,79.50
2019-02-25T03:10:20.811Z,79.90
2019-02-25T03:12:51.484Z,80.00
2019-02-25T03:15:23.246Z,80.10
2019-02-25T03:17:53.588Z,80.00
2019-02-25T03:20:23.944Z,79.90
2019-02-25T03:22:54.282Z,79.70
2019-02-25T03:25:24.602Z,79.90
2019-02-25T03:27:54.972Z,80.30
2019-02-25T03:30:25.315Z,80.10
2019-02-25T03:32:55.736Z,80.00
2019-02-25T03:35:26.065Z,79.80
2019-02-25T03:37:56.411Z,80.50
2019-02-25T03:40:26.779Z,79.60
2019-02-25T03:43:09.188Z,80.20
2019-02-25T03:45:39.525Z,80.00
2019-02-25T03:48:09.875Z,80.40
2019-02-25T03:50:40.918Z,80.70
2019-02-25T03:53:11.945Z,80.60
2019-02-25T03:55:42.273Z,80.20
2019-02-25T03:58:12.625Z,80.00
2019-02-25T04:00:42.955Z,80.20
2019-02-25T04:03:13.587Z,80.60
2019-02-25T04:05:43.990Z,80.70
2019-02-25T04:08:14.350Z,80.60
2019-02-25T04:10:44.680Z,80.70
2019-02-25T04:13:15.025Z,81.10
2019-02-25T04:15:45.637Z,80.20
2019-02-25T04:18:16.125Z,80.40
2019-02-25T04:20:46.485Z,80.50
2019-02-25T04:23:16.821Z,80.40
2019-02-25T04:25:47.156Z,80.10
2019-02-25T04:28:17.508Z,80.00
2019-02-25T04:30:47.843Z,79.80
2019-02-25T04:33:18.237Z,79.60
2019-02-25T04:35:48.560Z,79.50
2019-02-25T04:38:18.901Z,79.30
2019-02-25T04:40:49.231Z,79.20
2019-02-25T04:43:19.610Z,79.30
2019-02-25T04:45:49.942Z,79.20
2019-02-25T04:48:20.288Z,78.90
2019-02-25T04:50:50.639Z,78.90
2019-02-25T04:53:20.961Z,79.30
2019-02-25T04:55:51.300Z,79.40
2019-02-25T04:58:21.642Z,79.50
2019-02-25T05:00:51.984Z,79.30
2019-02-25T05:03:23.113Z,79.10
2019-02-25T05:05:53.453Z,79.10
2019-02-25T05:08:23.792Z,79.40
2019-02-25T05:10:54.135Z,79.20
2019-02-25T05:13:24.458Z,79.00
2019-02-25T05:15:54.812Z,78.90
2019-02-25T05:18:25.238Z,78.70
2019-02-25T05:20:55.592Z,78.90
2019-02-25T05:23:25.921Z,79.10
2019-02-25T05:25:56.280Z,79.20
2019-02-25T05:28:26.616Z,79.20
2019-02-25T05:30:56.973Z,79.20
2019-02-25T05:33:27.289Z,79.20
2019-02-25T05:35:57.649Z,79.20
2019-02-25T05:38:27.973Z,79.60
2019-02-25T05:40:58.318Z,80.00
2019-02-25T05:43:28.645Z,80.10
2019-02-25T05:45:59.819Z,80.20
2019-02-25T05:48:31.118Z,80.50
2019-02-25T05:51:01.497Z,80.60
2019-02-25T05:53:31.836Z,80.10
2019-02-25T05:56:02.194Z,79.60
2019-02-25T05:58:32.526Z,79.40
2019-02-25T06:01:02.884Z,79.80
2019-02-25T06:03:33.214Z,80.00
2019-02-25T06:06:03.564Z,79.90
2019-02-25T06:08:33.902Z,80.00
2019-02-25T06:11:04.317Z,80.20
2019-02-25T06:13:34.646Z,80.30
2019-02-25T06:16:04.989Z,80.10
2019-02-25T06:18:35.326Z,80.00
2019-02-25T06:21:05.669Z,79.90
2019-02-25T06:23:35.995Z,80.30
2019-02-25T06:26:06.353Z,80.40
2019-02-25T06:28:38.575Z,80.30
2019-02-25T06:31:09.003Z,80.10
2019-02-25T06:33:58.675Z,80.00
2019-02-25T06:36:29.017Z,80.30
2019-02-25T06:38:59.353Z,80.40
2019-02-25T06:41:29.758Z,80.80
2019-02-25T06:44:00.093Z,80.60
2019-02-25T06:46:32.003Z,80.30
2019-02-25T06:49:02.348Z,80.30
2019-02-25T06:51:32.692Z,80.40
2019-02-25T06:54:03.046Z,80.50
2019-02-25T06:56:33.365Z,80.60
2019-02-25T06:59:03.716Z,80.40
2019-02-25T07:01:34.043Z,80.60
2019-02-25T07:04:06.020Z,80.60
2019-02-25T07:06:38.464Z,80.50
2019-02-25T07:09:12.889Z,80.40
2019-02-25T07:11:44.888Z,80.50
2019-02-25T07:14:33.272Z,80.70
2019-02-25T07:17:22.749Z,80.60
2019-02-25T07:19:54.842Z,80.50
2019-02-25T07:22:26.830Z,80.70
2019-02-25T07:25:08.661Z,81.00
2019-02-25T07:27:49.953Z,81.00
2019-02-25T07:30:24.649Z,80.80
2019-02-25T07:33:00.926Z,80.50
2019-02-25T07:35:33.020Z,80.00
2019-02-25T07:38:07.782Z,79.60
2019-02-25T07:40:45.497Z,79.20
2019-02-25T07:43:20.274Z,78.70
2019-02-25T07:45:52.613Z,78.60
2019-02-25T07:48:24.538Z,78.50
2019-02-25T07:50:59.343Z,78.60
2019-02-25T07:53:37.466Z,78.70
2019-02-25T07:56:13.280Z,78.80
2019-02-25T07:59:12.452Z,78.50
2019-02-25T08:01:47.328Z,78.50
2019-02-25T08:04:19.327Z,78.70
2019-02-25T08:06:54.045Z,77.00
2019-02-25T08:09:35.217Z,74.40
2019-02-25T08:12:16.572Z,73.60
2019-02-25T08:14:51.497Z,72.90
2019-02-25T08:17:32.222Z,71.40
2019-02-25T08:20:19.264Z,69.90
2019-02-25T08:23:03.568Z,68.90
2019-02-25T08:25:38.807Z,68.90
2019-02-25T08:28:22.838Z,66.20
2019-02-25T08:31:13.093Z,64.70
2019-02-25T08:33:51.050Z,64.90
2019-02-25T08:37:02.130Z,65.40
2019-02-25T08:39:33.196Z,66.50
2019-02-25T08:42:15.142Z,67.20
2019-02-25T08:44:50.002Z,67.60
2019-02-25T08:47:30.907Z,67.90
2019-02-25T08:50:01.277Z,68.10
2019-02-25T08:52:32.686Z,66.90
2019-02-25T08:55:03.192Z,65.60
2019-02-25T08:57:33.601Z,64.40
2019-02-25T09:00:08.058Z,63.50
2019-02-25T09:02:38.380Z,61.50
2019-02-25T09:05:14.910Z,61.40
2019-02-25T09:07:45.258Z,60.00
2019-02-25T09:10:15.766Z,59.20
2019-02-25T09:12:46.180Z,58.40
2019-02-25T09:15:19.533Z,55.80
2019-02-25T09:17:48.240Z,53.80
2019-02-25T09:20:18.572Z,54.50
2019-02-25T09:22:48.925Z,54.30
2019-02-25T09:25:19.262Z,53.10
2019-02-25T09:27:49.606Z,52.60
2019-02-25T09:30:20.985Z,51.10
2019-02-25T09:32:51.329Z,50.30
2019-02-25T09:35:21.665Z,49.00
2019-02-25T09:37:52.005Z,46.30
2019-02-25T09:40:22.345Z,46.20
2019-02-25T09:42:52.741Z,46.40
2019-02-25T09:45:23.081Z,45.80
2019-02-25T09:47:53.416Z,45.00
2019-02-25T09:50:24.128Z,45.30
2019-02-25T09:52:54.475Z,44.00
2019-02-25T09:55:24.822Z,43.80
2019-02-25T09:57:55.157Z,42.00
2019-02-25T10:00:25.488Z,41.60
2019-02-25T10:02:56.800Z,39.00
2019-02-25T10:05:27.149Z,39.70
2019-02-25T10:07:57.490Z,40.30
2019-02-25T10:10:27.846Z,36.70
2019-02-25T10:12:58.195Z,41.10
2019-02-25T10:15:30.241Z,36.70
2019-02-25T10:18:00.583Z,39.50
2019-02-25T10:20:30.935Z,34.30
2019-02-25T10:23:01.341Z,32.20
2019-02-25T10:25:31.692Z,36.30
2019-02-25T10:28:02.097Z,34.80
2019-02-25T10:30:32.461Z,36.10
2019-02-25T10:33:04.330Z,34.20
2019-02-25T10:35:34.679Z,34.90
2019-02-25T10:38:05.353Z,32.10
2019-02-25T10:40:35.714Z,35.20
2019-02-25T10:43:06.041Z,32.50
2019-02-25T10:45:37.223Z,32.00
2019-02-25T10:48:08.425Z,29.60
2019-02-25T10:50:40.806Z,32.40
2019-02-25T10:53:12.928Z,31.80
2019-02-25T10:56:10.898Z,30.90
2019-02-25T10:58:41.249Z,30.00
2019-02-25T11:01:13.521Z,29.00
2019-02-25T11:03:45.468Z,31.10
2019-02-25T11:06:15.681Z,29.90
2019-02-25T11:08:47.726Z,29.10
2019-02-25T11:11:20.993Z,30.00
2019-02-25T11:13:51.822Z,28.20
2019-02-25T11:16:22.154Z,29.80
2019-02-25T11:18:54.515Z,28.20
2019-02-25T11:21:24.542Z,28.40
2019-02-25T11:23:54.878Z,28.40
2019-02-25T11:26:26.655Z,26.30
2019-02-25T11:28:57.269Z,28.30
2019-02-25T11:31:29.184Z,25.80
2019-02-25T11:34:00.640Z,28.10
2019-02-25T11:36:31.678Z,27.80
2019-02-25T11:39:06.936Z,27.70
2019-02-25T11:41:39.379Z,27.50
2019-02-25T11:44:09.998Z,28.40
2019-02-25T11:46:40.599Z,28.40
2019-02-25T11:49:10.945Z,28.50
2019-02-25T11:51:41.274Z,27.80
2019-02-25T11:54:11.618Z,28.00
2019-02-25T11:56:41.957Z,27.10
2019-02-25T11:59:12.369Z,27.80
2019-02-25T12:01:42.695Z,26.80
2019-02-25T12:04:13.051Z,27.40
2019-02-25T12:06:43.421Z,26.80
2019-02-25T12:09:13.755Z,27.30
2019-02-25T12:11:44.097Z,27.50
2019-02-25T12:14:14.447Z,27.40
2019-02-25T12:16:44.794Z,26.70
2019-02-25T12:19:18.012Z,26.70
2019-02-25T12:21:47.178Z,27.60
2019-02-25T12:24:37.819Z,27.20
2019-02-25T12:27:08.173Z,27.70
2019-02-25T12:29:38.797Z,27.10
2019-02-25T12:32:09.200Z,28.20
2019-02-25T12:34:40.615Z,28.40
2019-02-25T12:37:10.967Z,28.10
2019-02-25T12:39:41.311Z,27.20
2019-02-25T12:42:11.660Z,27.60
2019-02-25T12:44:41.993Z,27.80
2019-02-25T12:47:12.332Z,27.90
2019-02-25T12:49:42.663Z,28.20
2019-02-25T12:52:13.016Z,28.60
2019-02-25T12:54:43.359Z,29.00
2019-02-25T12:57:13.690Z,28.90
2019-02-25T12:59:44.038Z,29.40
2019-02-25T13:02:14.410Z,29.70
2019-02-25T13:04:44.755Z,28.20
2019-02-25T13:07:15.106Z,29.20
2019-02-25T13:09:45.437Z,29.30
2019-02-25T13:12:15.792Z,29.90
2019-02-25T13:14:46.133Z,29.20
2019-02-25T13:17:16.490Z,29.00
2019-02-25T13:19:46.840Z,28.90
2019-02-25T13:22:17.193Z,28.50
2019-02-25T13:24:47.538Z,28.90
2019-02-25T13:27:17.874Z,29.10
2019-02-25T13:29:49.574Z,28.70
2019-02-25T13:32:20.032Z,29.10
2019-02-25T13:34:50.785Z,28.90
2019-02-25T13:37:21.114Z,29.30
2019-02-25T13:39:51.461Z,29.30
2019-02-25T13:42:21.797Z,29.20
2019-02-25T13:44:52.150Z,29.70
2019-02-25T13:47:23.447Z,29.70
2019-02-25T13:49:55.492Z,29.80
2019-02-25T13:52:26.963Z,29.20
2019-02-25T13:54:57.319Z,29.10
2019-02-25T13:57:27.652Z,29.80
2019-02-25T13:59:58.018Z,29.60
2019-02-25T14:02:28.353Z,29.70
2019-02-25T14:04:58.968Z,30.20
2019-02-25T14:07:29.374Z,30.30
2019-02-25T14:09:59.830Z,30.30
2019-02-25T14:12:30.174Z,30.70
2019-02-25T14:15:00.528Z,31.00
2019-02-25T14:17:30.851Z,30.90
2019-02-25T14:20:02.723Z,30.70
2019-02-25T14:22:35.675Z,30.90
2019-02-25T14:25:12.739Z,31.10
2019-02-25T14:27:45.520Z,31.60
2019-02-25T14:30:20.551Z,32.30
2019-02-25T14:32:53.469Z,33.10
2019-02-25T14:35:28.567Z,33.20
2019-02-25T14:38:07.477Z,33.00
2019-02-25T14:40:39.311Z,33.20
2019-02-25T14:43:10.561Z,33.00
2019-02-25T14:45:42.066Z,32.00
2019-02-25T14:48:15.439Z,32.50
2019-02-25T14:50:43.981Z,32.70
2019-02-25T14:53:14.662Z,33.10
2019-02-25T14:55:47.199Z,33.10
2019-02-25T14:58:17.637Z,32.90
2019-02-25T15:00:48.080Z,33.20
2019-02-25T15:03:20.303Z,33.80
2019-02-25T15:05:52.416Z,34.40
2019-02-25T15:08:24.042Z,34.80
2019-02-25T15:10:55.526Z,35.20
2019-02-25T15:13:28.207Z,35.50
2019-02-25T15:15:58.776Z,35.40
2019-02-25T15:18:31.157Z,35.50
2019-02-25T15:21:02.545Z,35.80
2019-02-25T15:23:33.966Z,36.00
2019-02-25T15:26:05.573Z,36.40
2019-02-25T15:28:36.489Z,36.40
2019-02-25T15:31:07.346Z,36.40
2019-02-25T15:33:40.337Z,36.70
2019-02-25T15:36:11.475Z,37.00
2019-02-25T15:38:43.499Z,37.30
2019-02-25T15:41:14.672Z,37.50
2019-02-25T15:43:45.022Z,37.80
2019-02-25T15:46:16.713Z,38.10
2019-02-25T15:48:47.710Z,38.50
2019-02-25T15:51:18.523Z,38.70
2019-02-25T15:53:51.372Z,39.00
2019-02-25T15:56:21.213Z,40.20
2019-02-25T15:58:51.551Z,40.00
2019-02-25T16:01:21.891Z,39.90
2019-02-25T16:03:52.312Z,39.90
2019-02-25T16:06:26.992Z,39.60
2019-02-25T16:08:57.121Z,39.20
2019-02-25T16:11:28.407Z,37.40
2019-02-25T16:14:00.628Z,36.00
2019-02-25T16:16:30.789Z,35.00
2019-02-25T16:19:05.577Z,35.00
2019-02-25T16:21:34.973Z,34.60
2019-02-25T16:24:08.153Z,34.40
2019-02-25T16:26:38.481Z,34.00
2019-02-25T16:29:11.662Z,34.00
2019-02-25T16:31:42.269Z,34.50
2019-02-25T16:34:14.200Z,35.30
2019-02-25T16:36:47.619Z,34.60
2019-02-25T16:39:16.791Z,35.00
2019-02-25T16:41:47.776Z,35.20
2019-02-25T16:44:18.263Z,35.40
2019-02-25T16:46:50.619Z,35.70
2019-02-25T16:49:20.677Z,35.90
2019-02-25T16:51:53.186Z,36.30
2019-02-25T16:54:25.257Z,36.60
2019-02-25T16:56:55.658Z,37.10
2019-02-25T16:59:26.644Z,37.40
2019-02-25T17:01:58.098Z,38.30
2019-02-25T17:04:31.686Z,37.80
2019-02-25T17:07:02.729Z,38.20
2019-02-25T17:09:34.229Z,38.70
2019-02-25T17:12:07.217Z,39.00
2019-02-25T17:14:40.408Z,39.30
2019-02-25T17:17:10.434Z,40.00
2019-02-25T17:19:40.774Z,40.50
2019-02-25T17:22:11.190Z,40.50
2019-02-25T17:24:41.534Z,41.00
2019-02-25T17:27:14.156Z,41.80
2019-02-25T17:29:44.692Z,42.20
2019-02-25T17:32:16.672Z,42.60
2019-02-25T17:34:48.142Z,42.90
2019-02-25T17:37:19.471Z,43.40
2019-02-25T17:39:54.122Z,43.90
2019-02-25T17:42:22.192Z,44.30
2019-02-25T17:44:55.493Z,44.60
2019-02-25T17:47:28.680Z,45.00
2019-02-25T17:49:58.698Z,45.40
2019-02-25T17:52:29.443Z,45.40
2019-02-25T17:55:04.145Z,45.60
2019-02-25T17:57:35.070Z,45.80
2019-02-25T18:00:17.276Z,46.20
2019-02-25T18:02:47.759Z,47.00
2019-02-25T18:05:19.059Z,48.40
2019-02-25T18:07:50.170Z,48.70
2019-02-25T18:10:22.526Z,49.00
2019-02-25T18:12:54.463Z,49.00
2019-02-25T18:15:32.304Z,49.00
2019-02-25T18:18:02.873Z,50.00
2019-02-25T18:20:33.578Z,49.60
2019-02-25T18:23:05.451Z,50.00
2019-02-25T18:25:37.750Z,50.20
2019-02-25T18:28:08.412Z,50.60
2019-02-25T18:30:40.223Z,50.70
2019-02-25T18:33:10.912Z,51.20
2019-02-25T18:35:43.060Z,51.80
2019-02-25T18:38:13.381Z,53.00
2019-02-25T18:40:46.248Z,53.20
2019-02-25T18:43:16.017Z,53.80
2019-02-25T18:45:46.349Z,54.70
2019-02-25T18:48:17.392Z,55.60
2019-02-25T18:50:50.179Z,55.40
2019-02-25T18:53:21.237Z,56.20
2019-02-25T18:55:54.514Z,56.20
2019-02-25T18:58:26.389Z,56.00
2019-02-25T19:00:57.260Z,56.90
2019-02-25T19:03:29.027Z,56.90
2019-02-25T19:06:00.713Z,56.60
2019-02-25T19:08:31.252Z,56.90
2019-02-25T19:11:01.670Z,56.90
2019-02-25T19:13:32.127Z,57.10
2019-02-25T19:16:02.675Z,57.90
2019-02-25T19:18:34.420Z,58.80
2019-02-25T19:21:06.654Z,59.20
2019-02-25T19:23:39.383Z,59.60
2019-02-25T19:26:12.375Z,59.40
2019-02-25T19:28:44.091Z,59.20
2019-02-25T19:31:13.810Z,59.20
2019-02-25T19:33:44.178Z,60.00
2019-02-25T19:36:14.862Z,59.70
2019-02-25T19:38:45.823Z,59.60
2019-02-25T19:41:17.728Z,60.20
2019-02-25T19:43:58.710Z,61.10
2019-02-25T19:46:21.512Z,61.20
2019-02-25T19:48:54.082Z,61.00
2019-02-25T19:51:25.349Z,61.30
2019-02-25T19:53:56.385Z,61.20
2019-02-25T19:56:26.825Z,61.20
2019-02-25T19:58:58.044Z,61.10
2019-02-25T20:01:29.378Z,61.20
2019-02-25T20:04:04.292Z,61.10
2019-02-25T20:06:31.766Z,61.10
2019-02-25T20:09:02.105Z,61.40
2019-02-25T20:11:34.055Z,61.50
2019-02-25T20:14:04.409Z,61.60
2019-02-25T20:16:34.749Z,61.80
2019-02-25T20:19:06.808Z,62.00
2019-02-25T20:21:37.232Z,62.70
2019-02-25T20:24:10.282Z,63.40
2019-02-25T20:26:39.670Z,63.30
2019-02-25T20:29:11.087Z,63.20
2019-02-25T20:31:42.047Z,63.30
2019-02-25T20:34:16.488Z,63.70
2019-02-25T20:36:47.972Z,64.90
2019-02-25T20:39:17.537Z,65.40
2019-02-25T20:41:48.330Z,65.40
2019-02-25T20:44:22.163Z,65.30
2019-02-25T20:46:52.796Z,65.70
2019-02-25T20:49:29.530Z,65.70
2019-02-25T20:52:01.153Z,65.60
2019-02-25T20:54:30.709Z,65.50
2019-02-25T20:57:01.223Z,66.00
2019-02-25T20:59:33.106Z,66.10
2019-02-25T21:02:04.862Z,66.20
2019-02-25T21:04:36.836Z,66.20
2019-02-25T21:07:08.840Z,66.70
2019-02-25T21:09:40.551Z,68.10
2019-02-25T21:12:15.699Z,68.80
2019-02-25T21:14:45.607Z,68.70
2019-02-25T21:17:15.993Z,68.80
2019-02-25T21:19:46.338Z,68.70
2019-02-25T21:22:16.726Z,68.90
2019-02-25T21:24:47.069Z,69.00
2019-02-25T21:27:17.417Z,68.80
2019-02-25T21:29:47.752Z,68.70
2019-02-25T21:32:19.951Z,69.30
2019-02-25T21:34:56.014Z,69.70
2019-02-25T21:37:27.195Z,69.80
2019-02-25T21:39:58.330Z,70.00
2019-02-25T21:42:29.798Z,70.80
2019-02-25T21:45:02.393Z,71.10
2019-02-25T21:47:34.678Z,70.90
2019-02-25T21:50:11.867Z,70.80
2019-02-25T21:52:43.533Z,70.50
2019-02-25T21:55:17.122Z,70.70
2019-02-25T21:57:48.011Z,71.30
2019-02-25T22:00:27.126Z,71.30
2019-02-25T22:02:58.350Z,71.00
2019-02-25T22:05:28.652Z,71.20
2019-02-25T22:08:00.198Z,71.50
2019-02-25T22:10:34.158Z,71.30
2019-02-25T22:13:06.761Z,71.00
2019-02-25T22:15:36.252Z,71.20
2019-02-25T22:18:09.308Z,72.00
2019-02-25T22:20:41.816Z,72.20
2019-02-25T22:23:11.529Z,72.10
2019-02-25T22:25:41.858Z,71.90
2019-02-25T22:28:12.204Z,71.70
2019-02-25T22:30:43.476Z,71.70
2019-02-25T22:33:26.687Z,71.60
2019-02-25T22:35:51.856Z,71.80
2019-02-25T22:38:21.665Z,71.80
2019-02-25T22:40:53.710Z,72.00
2019-02-25T22:43:24.056Z,72.30
2019-02-25T22:45:56.176Z,72.20
2019-02-25T22:48:26.427Z,72.20
2019-02-25T22:50:57.831Z,72.40
2019-02-25T22:53:28.787Z,72.50
2019-02-25T22:55:59.127Z,72.70
2019-02-25T22:58:29.455Z,72.70
2019-02-25T23:01:05.083Z,72.50
2019-02-25T23:03:36.910Z,72.60
2019-02-25T23:06:09.235Z,72.80
2019-02-25T23:08:44.047Z,72.70
2019-02-25T23:11:14.338Z,72.90
2019-02-25T23:13:47.733Z,73.10
2019-02-25T23:16:19.903Z,73.50
2019-02-25T23:18:49.673Z,73.70
2019-02-25T23:21:23.820Z,74.60
2019-02-25T23:23:55.535Z,75.00
2019-02-25T23:26:24.077Z,75.10
2019-02-25T23:28:55.906Z,74.90
2019-02-25T23:31:29.784Z,74.90
2019-02-25T23:33:58.556Z,75.40
2019-02-25T23:36:28.890Z,75.30
2019-02-25T23:39:03.738Z,75.10
2019-02-25T23:41:36.572Z,74.90
2019-02-25T23:44:08.992Z,74.80
2019-02-25T23:46:40.037Z,74.80
2019-02-25T23:49:15.346Z,74.70
2019-02-25T23:51:46.386Z,74.70
2019-02-25T23:54:18.471Z,74.80
2019-02-25T23:56:50.390Z,75.10
2019-02-25T23:59:23.993Z,75.10
